Terminal Aerodrome Forecast
Issued by NWS

Home | Current Version | Previous Version | Text Only | Print | Product List | Glossary On
Versions: 1 2 3 4 5 6 7 8 9 10 11 12 13 14 15 16 17 18 19 20
839
FTAK31 PAJN 240014 AAA
TAFAYA
TAF AMD
PAYA 240014Z 2400/2424 14010KT 3SM RA BR SCT007 BKN015 OVC050
      TEMPO 2400/2404 07010KT P6SM -RA SCT010 SCT020 OVC050
     FM240400 07006KT P6SM VCSH SCT006 BKN015 OVC025
     FM240900 00000KT 4SM BR VCFG BKN004 OVC010
     FM241800 VRB04KT P6SM SCT010 OVC015
     FM242100 12006KT P6SM SCT015 BKN025 OVC035
      AMD LTD TO CLD VIS AND WIND 2401/2409=

USA.gov is the U.S. government's official web portal to all federal, state and local government web resources and services.